createdAt,value
2018-05-16T00:01:29.098Z,84.02
2018-05-16T00:04:32.343Z,83.94
2018-05-16T00:07:35.596Z,84.32
2018-05-16T00:10:38.890Z,84.67
2018-05-16T00:13:42.150Z,84.32
2018-05-16T00:16:46.171Z,84.84
2018-05-16T00:19:50.864Z,84.67
2018-05-16T00:22:54.900Z,85.34
2018-05-16T00:25:58.185Z,84.74
2018-05-16T00:29:01.436Z,84.57
2018-05-16T00:32:05.457Z,84.43
2018-05-16T00:35:09.471Z,84.22
2018-05-16T00:38:13.533Z,84.35
2018-05-16T00:41:16.815Z,84.17
2018-05-16T00:44:20.058Z,84.03
2018-05-16T00:47:23.320Z,84.23
2018-05-16T00:50:26.566Z,83.74
2018-05-16T00:53:29.825Z,84.42
2018-05-16T00:56:33.126Z,83.92
2018-05-16T00:59:36.354Z,84.27
2018-05-16T01:02:40.381Z,83.85
2018-05-16T01:05:43.665Z,83.85
2018-05-16T01:08:46.919Z,84.09
2018-05-16T01:11:50.174Z,83.92
2018-05-16T01:14:53.422Z,83.94
2018-05-16T01:17:56.669Z,84.14
2018-05-16T01:20:59.914Z,84.42
2018-05-16T01:24:03.245Z,84.20
2018-05-16T01:27:06.421Z,84.27
2018-05-16T01:30:10.478Z,84.00
2018-05-16T01:33:14.542Z,83.99
2018-05-16T01:36:17.805Z,84.50
2018-05-16T01:39:21.052Z,84.20
2018-05-16T01:42:24.306Z,83.77
2018-05-16T01:45:27.559Z,84.02
2018-05-16T01:48:31.595Z,84.03
2018-05-16T01:51:34.849Z,83.78
2018-05-16T01:54:38.158Z,84.11
2018-05-16T01:57:41.414Z,84.12
2018-05-16T02:00:44.675Z,83.53
2018-05-16T02:03:48.699Z,83.52
2018-05-16T02:06:52.722Z,83.46
2018-05-16T02:09:56.752Z,83.64
2018-05-16T02:13:00.782Z,83.21
2018-05-16T02:16:04.044Z,83.53
2018-05-16T02:19:07.293Z,83.73
2018-05-16T02:22:10.561Z,83.92
2018-05-16T02:25:14.583Z,83.81
2018-05-16T02:28:18.704Z,84.49
2018-05-16T02:31:22.748Z,84.05
2018-05-16T02:34:26.023Z,84.04
2018-05-16T02:37:30.254Z,84.02
2018-05-16T02:40:34.181Z,83.76
2018-05-16T02:43:38.213Z,84.31
2018-05-16T02:46:41.483Z,84.20
2018-05-16T02:49:45.511Z,83.90
2018-05-16T02:52:49.571Z,83.48
2018-05-16T02:55:52.895Z,83.59
2018-05-16T02:58:56.150Z,84.12
2018-05-16T03:01:59.431Z,84.16
2018-05-16T03:05:02.689Z,84.11
2018-05-16T03:08:05.990Z,84.36
2018-05-16T03:11:09.278Z,84.40
2018-05-16T03:14:12.529Z,84.59
2018-05-16T03:17:15.797Z,84.15
2018-05-16T03:20:19.081Z,84.49
2018-05-16T03:23:22.368Z,83.94
2018-05-16T03:26:26.396Z,83.69
2018-05-16T03:29:30.424Z,84.10
2018-05-16T03:32:34.451Z,83.36
2018-05-16T03:35:38.497Z,83.47
2018-05-16T03:38:41.876Z,83.49
2018-05-16T03:41:45.907Z,84.01
2018-05-16T03:44:49.175Z,83.82
2018-05-16T03:47:52.460Z,84.24
2018-05-16T03:50:55.738Z,83.58
2018-05-16T03:53:59.400Z,83.36
2018-05-16T03:57:02.778Z,83.48
2018-05-16T04:00:24.059Z,83.24
2018-05-16T04:03:46.526Z,83.54
2018-05-16T04:06:49.872Z,82.93
2018-05-16T04:09:53.215Z,82.91
2018-05-16T04:12:56.483Z,83.30
2018-05-16T04:16:00.674Z,83.63
2018-05-16T04:19:04.707Z,83.62
2018-05-16T04:22:08.008Z,82.54
2018-05-16T04:25:12.037Z,82.74
2018-05-16T04:28:15.309Z,82.98
2018-05-16T04:31:33.159Z,82.58
2018-05-16T04:34:37.206Z,82.90
2018-05-16T04:37:40.643Z,82.50
2018-05-16T04:40:43.937Z,82.54
2018-05-16T04:43:47.262Z,82.75
2018-05-16T04:46:50.525Z,82.46
2018-05-16T04:49:54.556Z,82.02
2018-05-16T04:52:57.915Z,82.38
2018-05-16T04:56:01.109Z,83.32
2018-05-16T04:59:04.709Z,82.55
2018-05-16T05:02:08.007Z,83.29
2018-05-16T05:05:11.266Z,83.29
2018-05-16T05:08:14.542Z,82.81
2018-05-16T05:11:17.838Z,82.61
2018-05-16T05:14:21.127Z,82.30
2018-05-16T05:17:24.421Z,82.35
2018-05-16T05:20:27.690Z,82.61
2018-05-16T05:23:31.097Z,82.30
2018-05-16T05:26:34.354Z,83.04
2018-05-16T05:29:37.624Z,82.67
2018-05-16T05:32:40.994Z,82.60
2018-05-16T05:35:44.284Z,82.45
2018-05-16T05:38:47.589Z,82.80
2018-05-16T05:41:51.036Z,82.58
2018-05-16T05:44:54.955Z,82.41
2018-05-16T05:47:58.504Z,82.71
2018-05-16T05:51:02.103Z,82.08
2018-05-16T05:54:05.596Z,81.95
2018-05-16T05:57:09.108Z,82.91
2018-05-16T06:00:12.468Z,82.53
2018-05-16T06:03:15.688Z,82.93
2018-05-16T06:06:19.015Z,83.21
2018-05-16T06:09:23.103Z,82.94
2018-05-16T06:12:26.399Z,84.06
2018-05-16T06:15:29.679Z,83.42
2018-05-16T06:18:32.942Z,83.85
2018-05-16T06:21:36.211Z,84.85
2018-05-16T06:24:39.489Z,84.22
2018-05-16T06:27:42.754Z,84.08
2018-05-16T06:30:46.024Z,84.10
2018-05-16T06:33:49.288Z,83.26
2018-05-16T06:36:53.317Z,83.25
2018-05-16T06:39:57.345Z,83.69
2018-05-16T06:43:01.382Z,84.14
2018-05-16T06:46:05.500Z,83.73
2018-05-16T06:49:09.526Z,83.11
2018-05-16T06:52:13.592Z,81.73
2018-05-16T06:55:16.850Z,81.51
2018-05-16T06:58:20.131Z,81.60
2018-05-16T07:01:23.409Z,81.54
2018-05-16T07:04:26.677Z,81.17
2018-05-16T07:07:30.704Z,82.11
2018-05-16T07:10:33.970Z,82.34
2018-05-16T07:13:37.255Z,82.13
2018-05-16T07:16:40.511Z,81.37
2018-05-16T07:19:44.542Z,80.89
2018-05-16T07:22:47.924Z,81.66
2018-05-16T07:25:51.894Z,80.55
2018-05-16T07:28:55.396Z,79.81
2018-05-16T07:31:58.724Z,80.25
2018-05-16T07:35:02.001Z,79.82
2018-05-16T07:38:06.022Z,79.01
2018-05-16T07:41:10.105Z,79.30
2018-05-16T07:44:14.087Z,79.39
2018-05-16T07:47:18.112Z,78.35
2018-05-16T07:50:22.159Z,77.64
2018-05-16T07:53:25.451Z,77.99
2018-05-16T07:56:29.556Z,77.54
2018-05-16T07:59:32.809Z,77.28
2018-05-16T08:02:36.063Z,77.12
2018-05-16T08:05:39.355Z,78.23
2018-05-16T08:08:42.611Z,78.01
2018-05-16T08:11:46.649Z,77.97
2018-05-16T08:14:50.733Z,78.62
2018-05-16T08:17:54.007Z,78.73
2018-05-16T08:20:57.324Z,79.17
2018-05-16T08:24:00.565Z,79.17
2018-05-16T08:27:04.791Z,77.23
2018-05-16T08:30:08.061Z,78.93
2018-05-16T08:33:11.415Z,78.71
2018-05-16T08:36:14.677Z,78.18
2018-05-16T08:39:17.933Z,77.28
2018-05-16T08:42:21.965Z,77.23
2018-05-16T08:45:26.052Z,77.51
2018-05-16T08:48:29.290Z,77.84
2018-05-16T08:51:32.563Z,76.92
2018-05-16T08:54:35.856Z,76.49
2018-05-16T08:57:39.114Z,77.43
2018-05-16T09:00:42.372Z,77.11
2018-05-16T09:03:45.641Z,77.50
2018-05-16T09:06:49.678Z,76.89
2018-05-16T09:09:52.942Z,77.66
2018-05-16T09:12:56.205Z,77.47
2018-05-16T09:15:59.480Z,75.52
2018-05-16T09:19:02.748Z,75.63
2018-05-16T09:22:06.015Z,76.87
2018-05-16T09:25:09.312Z,76.87
2018-05-16T09:28:14.078Z,79.30
2018-05-16T09:31:17.707Z,80.42
2018-05-16T09:34:20.960Z,80.63
2018-05-16T09:37:24.288Z,80.63
2018-05-16T09:40:28.316Z,81.58
2018-05-16T09:43:31.837Z,81.00
2018-05-16T09:46:35.878Z,81.56
2018-05-16T09:49:39.136Z,80.90
2018-05-16T09:52:42.493Z,80.57
2018-05-16T09:55:45.786Z,79.11
2018-05-16T09:58:49.822Z,79.98
2018-05-16T10:01:53.083Z,79.13
2018-05-16T10:04:56.363Z,77.99
2018-05-16T10:07:59.639Z,78.70
2018-05-16T10:11:03.666Z,79.80
2018-05-16T10:14:07.686Z,77.89
2018-05-16T10:17:11.715Z,78.40
2018-05-16T10:20:15.833Z,78.31
2018-05-16T10:23:19.765Z,77.45
2018-05-16T10:26:23.797Z,77.56
2018-05-16T10:29:27.049Z,79.24
2018-05-16T10:32:30.346Z,77.91
2018-05-16T10:35:33.615Z,78.36
2018-05-16T10:38:36.887Z,79.41
2018-05-16T10:41:40.156Z,77.49
2018-05-16T10:44:43.418Z,77.86
2018-05-16T10:47:47.458Z,77.94
2018-05-16T10:50:50.714Z,77.29
2018-05-16T10:53:53.969Z,77.42
2018-05-16T10:56:57.235Z,74.80
2018-05-16T11:00:00.502Z,72.82
2018-05-16T11:03:03.761Z,72.45
2018-05-16T11:06:07.806Z,73.12
2018-05-16T11:09:11.829Z,73.56
2018-05-16T11:12:15.861Z,75.32
2018-05-16T11:15:19.897Z,76.21
2018-05-16T11:18:23.929Z,73.34
2018-05-16T11:21:28.223Z,72.01
2018-05-16T11:24:31.404Z,75.80
2018-05-16T11:27:35.031Z,77.46
2018-05-16T11:30:39.147Z,77.28
2018-05-16T11:33:42.596Z,79.30
2018-05-16T11:36:45.873Z,78.72
2018-05-16T11:39:49.145Z,81.22
2018-05-16T11:42:54.404Z,81.32
2018-05-16T11:45:57.684Z,81.22
2018-05-16T11:49:02.447Z,80.45
2018-05-16T11:52:05.756Z,77.59
2018-05-16T11:55:09.032Z,76.62
2018-05-16T11:58:12.313Z,75.40
2018-05-16T12:01:16.345Z,75.90
2018-05-16T12:04:19.621Z,76.00
2018-05-16T12:07:22.888Z,74.18
2018-05-16T12:10:26.156Z,73.70
2018-05-16T12:13:29.444Z,72.97
2018-05-16T12:20:07.312Z,74.10
2018-05-16T12:23:11.366Z,73.57
2018-05-16T12:26:15.681Z,73.10
2018-05-16T12:29:19.774Z,74.26
2018-05-16T12:32:22.926Z,74.42
2018-05-16T12:35:26.221Z,74.60
2018-05-16T12:38:29.650Z,73.60
2018-05-16T12:41:32.910Z,73.81
2018-05-16T12:44:36.162Z,73.50
2018-05-16T12:47:39.451Z,72.72
2018-05-16T12:50:42.710Z,73.15
2018-05-16T12:53:46.001Z,73.75
2018-05-16T12:56:49.286Z,73.29
2018-05-16T12:59:52.535Z,73.42
2018-05-16T13:02:55.790Z,73.47
2018-05-16T13:05:59.171Z,71.96
2018-05-16T13:09:03.230Z,73.12
2018-05-16T13:12:06.522Z,73.63
2018-05-16T13:15:09.791Z,74.34
2018-05-16T13:18:13.191Z,75.84
2018-05-16T13:21:16.420Z,75.40
2018-05-16T13:24:20.468Z,75.89
2018-05-16T13:27:23.767Z,74.55
2018-05-16T13:30:27.030Z,75.33
2018-05-16T13:33:30.431Z,76.22
2018-05-16T13:36:33.776Z,73.86
2018-05-16T13:39:37.807Z,75.29
2018-05-16T13:42:41.913Z,76.11
2018-05-16T13:45:45.206Z,76.66
2018-05-16T13:48:48.463Z,78.23
2018-05-16T13:51:51.715Z,76.78
2018-05-16T13:54:54.994Z,78.16
2018-05-16T13:57:58.293Z,79.64
2018-05-16T14:01:03.272Z,79.63
2018-05-16T14:04:08.269Z,80.17
2018-05-16T14:07:11.533Z,77.76
2018-05-16T14:10:14.818Z,76.98
2018-05-16T14:13:18.069Z,77.08
2018-05-16T14:16:21.330Z,76.84
2018-05-16T14:19:24.619Z,77.75
2018-05-16T14:22:27.925Z,77.51
2018-05-16T14:25:33.362Z,76.14
2018-05-16T14:28:37.398Z,75.23
2018-05-16T14:31:42.889Z,76.47
2018-05-16T14:34:46.432Z,78.46
2018-05-16T14:37:49.753Z,78.97
2018-05-16T14:40:53.011Z,78.67
2018-05-16T14:43:57.030Z,78.89
2018-05-16T14:47:00.333Z,80.34
2018-05-16T14:50:04.671Z,80.97
2018-05-16T14:53:08.014Z,80.79
2018-05-16T14:56:12.131Z,78.81
2018-05-16T14:59:15.389Z,79.66
2018-05-16T15:02:19.495Z,78.12
2018-05-16T15:05:22.747Z,78.45
2018-05-16T15:08:26.043Z,77.36
2018-05-16T15:11:29.347Z,78.43
2018-05-16T15:14:32.678Z,77.77
2018-05-16T15:17:35.943Z,80.34
2018-05-16T15:20:39.197Z,80.52
2018-05-16T15:23:42.453Z,79.92
2018-05-16T15:26:45.879Z,78.27
2018-05-16T15:29:50.000Z,78.16
2018-05-16T15:32:53.343Z,81.71
2018-05-16T15:35:56.592Z,81.77
2018-05-16T15:38:59.986Z,80.86
2018-05-16T15:42:03.405Z,80.13
2018-05-16T15:45:06.679Z,79.92
2018-05-16T15:48:10.761Z,79.09
2018-05-16T15:51:14.129Z,78.21
2018-05-16T15:54:17.465Z,77.60
2018-05-16T15:57:20.790Z,76.91
2018-05-16T16:00:24.107Z,76.64
2018-05-16T16:03:28.284Z,77.52
2018-05-16T16:06:31.581Z,78.27
2018-05-16T16:09:35.301Z,77.99
2018-05-16T16:12:38.582Z,77.16
2018-05-16T16:15:41.844Z,76.21
2018-05-16T16:18:45.149Z,77.49
2018-05-16T16:21:48.914Z,78.19
2018-05-16T16:24:52.951Z,78.27
2018-05-16T16:27:56.245Z,78.30
2018-05-16T16:31:00.403Z,79.76
2018-05-16T16:34:16.574Z,80.45
2018-05-16T16:37:41.726Z,81.30
2018-05-16T16:40:56.655Z,80.25
2018-05-16T16:44:03.883Z,80.95
2018-05-16T16:47:07.485Z,81.12
2018-05-16T16:53:45.657Z,81.40
2018-05-16T16:56:48.996Z,82.19
2018-05-16T16:59:53.248Z,82.26
2018-05-16T17:02:56.510Z,83.97
2018-05-16T17:06:00.652Z,83.45
2018-05-16T17:09:03.919Z,83.38
2018-05-16T17:12:07.197Z,83.98
2018-05-16T17:15:10.476Z,84.46
2018-05-16T17:18:14.621Z,82.85
2018-05-16T17:21:17.906Z,84.94
2018-05-16T17:24:22.018Z,85.30
2018-05-16T17:27:25.335Z,84.43
2018-05-16T17:30:29.419Z,83.87
2018-05-16T17:33:33.250Z,83.34
2018-05-16T17:36:36.506Z,82.92
2018-05-16T17:39:39.807Z,81.94
2018-05-16T17:42:43.077Z,82.64
2018-05-16T17:45:47.119Z,82.17
2018-05-16T17:48:50.383Z,82.98
2018-05-16T17:51:54.739Z,82.91
2018-05-16T17:54:58.177Z,82.55
2018-05-16T17:58:02.428Z,83.04
2018-05-16T18:01:06.069Z,82.89
2018-05-16T18:04:10.161Z,83.14
2018-05-16T18:07:13.457Z,82.69
2018-05-16T18:10:16.781Z,83.39
2018-05-16T18:17:27.919Z,84.08
2018-05-16T18:20:31.938Z,84.24
2018-05-16T18:23:35.978Z,83.83
2018-05-16T18:26:39.247Z,84.29
2018-05-16T18:29:42.614Z,84.49
2018-05-16T18:32:45.875Z,84.98
2018-05-16T18:35:49.282Z,84.62
2018-05-16T18:38:53.323Z,84.39
2018-05-16T18:41:57.357Z,84.34
2018-05-16T18:45:00.608Z,84.22
2018-05-16T18:48:03.862Z,84.34
2018-05-16T18:51:07.130Z,83.85
2018-05-16T18:54:11.169Z,84.09
2018-05-16T18:57:14.438Z,84.36
2018-05-16T19:00:17.698Z,85.31
2018-05-16T19:03:21.004Z,85.03
2018-05-16T19:06:24.864Z,84.34
2018-05-16T19:09:28.145Z,84.15
2018-05-16T19:12:31.403Z,84.71
2018-05-16T19:15:34.662Z,84.13
2018-05-16T19:18:37.917Z,84.41
2018-05-16T19:21:41.191Z,84.23
2018-05-16T19:24:45.036Z,84.37
2018-05-16T19:27:48.321Z,84.15
2018-05-16T19:30:51.591Z,84.22
2018-05-16T19:33:57.084Z,84.19
2018-05-16T19:37:01.206Z,84.54
2018-05-16T19:40:05.238Z,84.16
2018-05-16T19:43:11.006Z,84.59
2018-05-16T19:46:14.957Z,84.85
2018-05-16T19:49:18.839Z,84.84
2018-05-16T19:52:24.170Z,85.65
2018-05-16T19:55:27.453Z,85.38
2018-05-16T19:58:32.323Z,86.06
2018-05-16T20:01:37.256Z,86.00
2018-05-16T20:04:41.813Z,86.51
2018-05-16T20:07:45.909Z,86.60
2018-05-16T20:10:49.789Z,86.70
2018-05-16T20:13:53.082Z,86.87
2018-05-16T20:16:56.431Z,87.00
2018-05-16T20:20:00.501Z,86.58
2018-05-16T20:23:03.761Z,86.92
2018-05-16T20:26:07.078Z,86.90
2018-05-16T20:29:11.090Z,86.56
2018-05-16T20:32:15.217Z,86.93
2018-05-16T20:35:19.253Z,87.00
2018-05-16T20:38:23.317Z,87.56
2018-05-16T20:41:47.716Z,87.51
2018-05-16T20:44:52.832Z,87.32
2018-05-16T20:47:56.906Z,87.54
2018-05-16T20:51:00.175Z,87.73
2018-05-16T20:54:04.197Z,87.26
2018-05-16T20:57:07.501Z,87.44
2018-05-16T21:00:11.565Z,87.79
2018-05-16T21:03:14.843Z,87.82
2018-05-16T21:06:19.499Z,87.21
2018-05-16T21:09:22.748Z,87.41
2018-05-16T21:12:26.089Z,87.32
2018-05-16T21:15:30.132Z,87.06
2018-05-16T21:18:34.253Z,86.99
2018-05-16T21:21:39.899Z,87.74
2018-05-16T21:24:43.152Z,87.22
2018-05-16T21:27:46.538Z,87.14
2018-05-16T21:30:50.569Z,87.05
2018-05-16T21:33:54.647Z,86.82
2018-05-16T21:36:57.916Z,86.80
2018-05-16T21:40:01.190Z,87.12
2018-05-16T21:43:04.459Z,87.37
2018-05-16T21:46:07.728Z,87.42
2018-05-16T21:49:11.762Z,87.15
2018-05-16T21:52:15.863Z,87.33
2018-05-16T21:55:19.237Z,87.10
2018-05-16T21:58:22.534Z,87.08
2018-05-16T22:01:25.851Z,86.50
2018-05-16T22:04:29.118Z,87.09
2018-05-16T22:07:32.570Z,87.31
2018-05-16T22:10:36.777Z,87.19
2018-05-16T22:13:41.714Z,87.53
2018-05-16T22:16:45.861Z,87.54
2018-05-16T22:19:49.112Z,87.92
2018-05-16T22:22:52.421Z,87.50
2018-05-16T22:25:55.754Z,87.61
2018-05-16T22:28:59.036Z,87.29
2018-05-16T22:32:08.498Z,86.95
2018-05-16T22:35:17.453Z,87.24
2018-05-16T22:38:26.858Z,86.83
2018-05-16T22:41:35.777Z,86.83
2018-05-16T22:44:43.222Z,87.26
2018-05-16T22:47:46.481Z,87.02
2018-05-16T22:50:50.534Z,87.45
2018-05-16T22:53:53.781Z,87.24
2018-05-16T22:56:57.041Z,87.29
2018-05-16T23:00:00.340Z,87.36
2018-05-16T23:03:04.450Z,87.69
2018-05-16T23:06:07.669Z,87.47
2018-05-16T23:09:11.684Z,87.71
2018-05-16T23:12:15.714Z,87.82
2018-05-16T23:15:19.738Z,87.80
2018-05-16T23:18:23.760Z,87.63
2018-05-16T23:21:48.120Z,87.64
2018-05-16T23:24:52.897Z,87.37
2018-05-16T23:27:56.922Z,88.02
2018-05-16T23:31:01.002Z,87.81
2018-05-16T23:34:04.263Z,87.91
2018-05-16T23:37:07.619Z,87.39
2018-05-16T23:40:10.894Z,87.47
2018-05-16T23:43:14.880Z,87.57
2018-05-16T23:46:18.182Z,87.59
2018-05-16T23:49:21.446Z,87.38
2018-05-16T23:52:24.722Z,87.30
2018-05-16T23:55:27.994Z,86.95
2018-05-16T23:58:31.262Z,86.76
